Converse, South Carolina
Current Conditions -  °F | °C
As of 11:35 AM on Thursday 29 Jan 2015 (Local Time) from KSPA Reporting Station
Clear Clear  
Wind Chill: 41°   Ceiling: Unl
Heat Index: 45°   Visibility: 10mi
Dew Point: 23°   Wind: 6mph
Humidity: 43%   Direction: 230°SW
Pressure: 30.3"   Gusts: NA
Location:  34.99°N, 81.83°W
Report Text: KSPA 291635Z AUTO 23005KT 10SM CLR 07/M05 A3030 RMK AO2
Loading
Personal Weather Stations






























Interactive Weather Map New forecast layout! Learn more

10-Day Weather Forecast

Advertisements
Track Severe Weather on mobile